Time,TemperatureF,DewpointF,PressureIn,WindDirection,WindDirectionDegrees,WindSpeedMPH,WindSpeedGustMPH,Humidity,HourlyPrecipIn,Conditions,Clouds,dailyrainin,SoftwareType,DateUTC
2013-09-24 00:00:00,56.2,55.1,30.16,WNW,293,3.7,0.0,96,0.00,,,0.00,VWS V14.01,2013-09-23 22:00:00,
2013-09-24 00:05:00,56.0,54.9,30.16,WNW,293,3.7,0.0,96,0.00,,,0.00,VWS V14.01,2013-09-23 22:05:00,
2013-09-24 00:11:00,56.0,54.9,30.16,WNW,293,3.7,0.0,96,0.00,,,0.00,VWS V14.01,2013-09-23 22:11:00,
2013-09-24 00:16:00,55.9,54.8,30.15,WNW,293,3.7,0.0,96,0.00,,,0.00,VWS V14.01,2013-09-23 22:16:00,
2013-09-24 00:21:00,55.7,54.6,30.15,WNW,292,3.7,0.0,96,0.00,,,0.00,VWS V14.01,2013-09-23 22:21:00,
2013-09-24 00:26:00,55.5,54.4,30.15,WNW,293,3.7,0.0,96,0.00,,,0.00,VWS V14.01,2013-09-23 22:26:00,
2013-09-24 00:31:00,55.4,54.3,30.15,WNW,293,3.7,0.0,96,0.00,,,0.00,VWS V14.01,2013-09-23 22:31:00,
2013-09-24 00:36:00,55.2,54.1,30.15,WNW,293,3.7,0.0,96,0.00,,,0.00,VWS V14.01,2013-09-23 22:36:00,
2013-09-24 00:41:00,54.9,53.8,30.15,WNW,293,3.7,0.0,96,0.00,,,0.00,VWS V14.01,2013-09-23 22:41:00,
2013-09-24 00:46:00,54.7,53.6,30.14,WNW,293,3.7,0.0,96,0.00,,,0.00,VWS V14.01,2013-09-23 22:46:00,
2013-09-24 00:51:00,54.8,53.7,30.14,WNW,292,3.7,0.0,96,0.00,,,0.00,VWS V14.01,2013-09-23 22:51:00,
2013-09-24 00:56:00,54.7,53.6,30.14,WNW,293,3.7,0.0,96,0.00,,,0.00,VWS V14.01,2013-09-23 22:56:00,
2013-09-24 01:01:00,54.7,53.6,30.14,WNW,293,3.7,0.0,96,0.00,,,0.00,VWS V14.01,2013-09-23 23:01:00,
2013-09-24 01:06:00,54.5,53.4,30.14,WNW,293,3.7,0.0,96,0.00,,,0.00,VWS V14.01,2013-09-23 23:06:00,
2013-09-24 01:11:00,54.5,53.4,30.14,WNW,293,3.7,0.0,96,0.00,,,0.00,VWS V14.01,2013-09-23 23:11:00,
2013-09-24 01:16:00,54.2,53.1,30.14,WNW,293,3.7,0.0,96,0.00,,,0.00,VWS V14.01,2013-09-23 23:16:00,
2013-09-24 01:21:00,54.1,53.0,30.14,WNW,293,3.7,0.0,96,0.00,,,0.00,VWS V14.01,2013-09-23 23:21:00,
2013-09-24 01:27:00,54.1,53.0,30.14,WNW,293,3.7,0.0,96,0.00,,,0.00,VWS V14.01,2013-09-23 23:27:00,
2013-09-24 01:32:00,53.9,52.8,30.14,WNW,293,3.7,0.0,96,0.00,,,0.00,VWS V14.01,2013-09-23 23:32:00,
2013-09-24 01:37:00,54.0,52.9,30.14,WNW,293,3.7,0.0,96,0.00,,,0.00,VWS V14.01,2013-09-23 23:37:00,
2013-09-24 01:42:00,53.7,52.6,30.14,WNW,293,3.7,0.0,96,0.00,,,0.00,VWS V14.01,2013-09-23 23:42:00,
2013-09-24 01:47:00,53.6,52.5,30.14,WNW,293,3.7,0.0,96,0.00,,,0.00,VWS V14.01,2013-09-23 23:47:00,
2013-09-24 01:52:00,53.4,52.3,30.14,WNW,293,3.7,0.0,96,0.00,,,0.00,VWS V14.01,2013-09-23 23:52:00,
2013-09-24 01:57:00,53.3,52.2,30.14,WNW,293,3.7,0.0,96,0.00,,,0.00,VWS V14.01,2013-09-23 23:57:00,
2013-09-24 02:02:00,53.0,51.9,30.14,WNW,293,3.7,0.0,96,0.00,,,0.00,VWS V14.01,2013-09-24 00:02:00,
2013-09-24 02:07:00,53.0,51.9,30.14,WNW,293,3.7,0.0,96,0.00,,,0.00,VWS V14.01,2013-09-24 00:07:00,
2013-09-24 02:12:00,53.0,51.9,30.14,WNW,293,3.7,0.0,96,0.00,,,0.00,VWS V14.01,2013-09-24 00:12:00,
2013-09-24 02:17:00,53.0,51.9,30.14,WNW,293,3.7,0.0,96,0.00,,,0.00,VWS V14.01,2013-09-24 00:17:00,
2013-09-24 02:22:00,53.0,51.9,30.14,WNW,293,3.7,0.0,96,0.00,,,0.00,VWS V14.01,2013-09-24 00:22:00,
2013-09-24 02:27:00,53.0,52.2,30.14,WNW,293,3.7,0.0,97,0.00,,,0.00,VWS V14.01,2013-09-24 00:27:00,
2013-09-24 02:32:00,53.0,52.2,30.14,WNW,293,3.7,0.0,97,0.00,,,0.00,VWS V14.01,2013-09-24 00:32:00,
2013-09-24 02:37:00,53.0,52.2,30.13,WNW,293,3.7,0.0,97,0.00,,,0.00,VWS V14.01,2013-09-24 00:37:00,
2013-09-24 02:42:00,53.0,51.9,30.13,WNW,293,3.7,0.0,96,0.00,,,0.00,VWS V14.01,2013-09-24 00:42:00,
2013-09-24 02:47:00,53.1,52.3,30.13,WNW,293,3.7,0.0,97,0.00,,,0.00,VWS V14.01,2013-09-24 00:47:00,
2013-09-24 02:53:00,53.3,52.5,30.13,WNW,293,3.7,0.0,97,0.00,,,0.00,VWS V14.01,2013-09-24 00:53:00,
2013-09-24 02:58:00,53.5,52.7,30.13,WNW,293,3.7,0.0,97,0.00,,,0.00,VWS V14.01,2013-09-24 00:58:00,
2013-09-24 03:03:00,53.6,52.8,30.13,WNW,293,3.7,0.0,97,0.00,,,0.00,VWS V14.01,2013-09-24 01:03:00,
2013-09-24 03:08:00,53.8,53.0,30.13,WNW,293,3.7,0.0,97,0.00,,,0.00,VWS V14.01,2013-09-24 01:08:00,
2013-09-24 03:13:00,53.9,53.1,30.13,WNW,293,3.7,0.0,97,0.00,,,0.00,VWS V14.01,2013-09-24 01:13:00,
2013-09-24 03:18:00,54.0,53.2,30.13,WNW,293,3.7,0.0,97,0.00,,,0.00,VWS V14.01,2013-09-24 01:18:00,
2013-09-24 03:23:00,54.1,53.3,30.12,WNW,293,3.7,0.0,97,0.00,,,0.00,VWS V14.01,2013-09-24 01:23:00,
2013-09-24 03:28:00,54.3,53.5,30.12,WNW,293,3.7,0.0,97,0.00,,,0.00,VWS V14.01,2013-09-24 01:28:00,
2013-09-24 03:33:00,54.3,53.5,30.12,WNW,293,3.7,0.0,97,0.00,,,0.00,VWS V14.01,2013-09-24 01:33:00,
2013-09-24 03:38:00,54.5,53.7,30.12,WNW,285,3.7,0.0,97,0.00,,,0.00,VWS V14.01,2013-09-24 01:38:00,
2013-09-24 03:43:00,54.5,53.7,30.12,WNW,285,3.7,0.0,97,0.00,,,0.00,VWS V14.01,2013-09-24 01:43:00,
2013-09-24 03:49:00,54.6,53.8,30.12,WNW,286,3.7,0.0,97,0.00,,,0.00,VWS V14.01,2013-09-24 01:49:00,
2013-09-24 03:54:00,54.7,53.9,30.12,WNW,286,3.7,0.0,97,0.00,,,0.00,VWS V14.01,2013-09-24 01:54:00,
2013-09-24 03:59:00,54.9,54.1,30.12,WNW,285,3.7,0.0,97,0.00,,,0.00,VWS V14.01,2013-09-24 01:59:00,
2013-09-24 04:04:00,55.1,54.3,30.12,WNW,285,3.7,0.0,97,0.00,,,0.00,VWS V14.01,2013-09-24 02:04:00,
2013-09-24 04:09:00,55.2,54.4,30.12,WNW,285,3.7,0.0,97,0.00,,,0.00,VWS V14.01,2013-09-24 02:09:00,
2013-09-24 04:14:00,55.2,54.4,30.12,WNW,285,3.7,0.0,97,0.00,,,0.00,VWS V14.01,2013-09-24 02:14:00,
2013-09-24 04:19:00,55.3,54.5,30.11,WNW,285,3.7,0.0,97,0.00,,,0.00,VWS V14.01,2013-09-24 02:19:00,
2013-09-24 04:24:00,55.3,54.5,30.11,WNW,286,3.7,0.0,97,0.00,,,0.00,VWS V14.01,2013-09-24 02:24:00,
2013-09-24 04:29:00,55.3,54.5,30.12,WNW,285,3.7,0.0,97,0.00,,,0.00,VWS V14.01,2013-09-24 02:29:00,
2013-09-24 04:34:00,55.4,54.6,30.11,West,272,3.7,0.0,97,0.00,,,0.00,VWS V14.01,2013-09-24 02:34:00,
2013-09-24 04:40:00,55.3,54.5,30.11,South,189,3.7,0.0,97,0.00,,,0.00,VWS V14.01,2013-09-24 02:40:00,
2013-09-24 04:45:00,55.3,54.5,30.11,South,189,3.7,0.0,97,0.00,,,0.00,VWS V14.01,2013-09-24 02:45:00,
2013-09-24 04:50:00,55.3,54.5,30.11,South,189,3.7,0.0,97,0.00,,,0.00,VWS V14.01,2013-09-24 02:50:00,
2013-09-24 04:55:00,55.3,54.5,30.11,South,189,3.7,0.0,97,0.00,,,0.00,VWS V14.01,2013-09-24 02:55:00,
2013-09-24 05:00:00,55.4,54.6,30.11,South,189,3.7,0.0,97,0.00,,,0.00,VWS V14.01,2013-09-24 03:00:00,
2013-09-24 05:05:00,55.5,54.7,30.10,South,189,3.7,0.0,97,0.00,,,0.00,VWS V14.01,2013-09-24 03:05:00,
2013-09-24 05:10:00,55.6,54.8,30.10,South,189,3.7,0.0,97,0.00,,,0.00,VWS V14.01,2013-09-24 03:10:00,
2013-09-24 05:15:00,55.7,54.9,30.10,South,189,3.7,0.0,97,0.00,,,0.00,VWS V14.01,2013-09-24 03:15:00,
2013-09-24 05:20:00,55.8,55.0,30.10,SSW,193,3.7,0.0,97,0.00,,,0.00,VWS V14.01,2013-09-24 03:20:00,
2013-09-24 05:25:00,55.8,55.0,30.10,SSW,193,3.7,0.0,97,0.01,,,0.01,VWS V14.01,2013-09-24 03:25:00,
2013-09-24 05:30:00,55.9,55.1,30.09,SSW,193,3.7,0.0,97,0.01,,,0.01,VWS V14.01,2013-09-24 03:30:00,
2013-09-24 05:35:00,55.9,55.1,30.09,SSW,193,3.7,0.0,97,0.01,,,0.01,VWS V14.01,2013-09-24 03:35:00,
2013-09-24 05:41:00,56.0,55.2,30.09,SSW,193,3.7,0.0,97,0.01,,,0.01,VWS V14.01,2013-09-24 03:41:00,
2013-09-24 05:46:00,56.1,55.3,30.08,SSW,193,3.7,0.0,97,0.01,,,0.01,VWS V14.01,2013-09-24 03:46:00,
2013-09-24 05:51:00,56.1,55.3,30.08,SSW,193,3.7,0.0,97,0.01,,,0.01,VWS V14.01,2013-09-24 03:51:00,
2013-09-24 05:56:00,56.2,55.4,30.08,SSW,193,3.7,0.0,97,0.01,,,0.01,VWS V14.01,2013-09-24 03:56:00,
2013-09-24 06:01:00,56.2,55.4,30.09,SSW,193,3.7,0.0,97,0.01,,,0.01,VWS V14.01,2013-09-24 04:01:00,
2013-09-24 06:07:00,56.3,55.5,30.09,SSW,193,3.7,0.0,97,0.01,,,0.01,VWS V14.01,2013-09-24 04:07:00,
2013-09-24 06:12:00,56.4,55.6,30.08,SSW,193,3.7,0.0,97,0.01,,,0.01,VWS V14.01,2013-09-24 04:12:00,
2013-09-24 06:17:00,56.5,55.7,30.08,SSW,193,3.7,0.0,97,0.01,,,0.01,VWS V14.01,2013-09-24 04:17:00,
2013-09-24 06:22:00,56.5,55.7,30.08,SSW,193,3.7,0.0,97,0.01,,,0.01,VWS V14.01,2013-09-24 04:22:00,
2013-09-24 06:27:00,56.6,55.8,30.08,SSW,193,3.7,0.0,97,0.01,,,0.01,VWS V14.01,2013-09-24 04:27:00,
2013-09-24 06:32:00,56.7,55.9,30.08,SSW,193,3.7,0.0,97,0.00,,,0.01,VWS V14.01,2013-09-24 04:32:00,
2013-09-24 06:37:00,56.8,56.0,30.08,SSW,196,3.7,0.0,97,0.00,,,0.01,VWS V14.01,2013-09-24 04:37:00,
2013-09-24 06:42:00,56.9,56.1,30.08,SSW,196,3.7,0.0,97,0.00,,,0.01,VWS V14.01,2013-09-24 04:42:00,
2013-09-24 06:47:00,57.0,56.2,30.07,SSW,196,3.7,0.0,97,0.00,,,0.01,VWS V14.01,2013-09-24 04:47:00,
2013-09-24 06:52:00,57.1,56.3,30.07,SSW,196,3.7,0.0,97,0.00,,,0.01,VWS V14.01,2013-09-24 04:52:00,
2013-09-24 06:57:00,57.1,56.3,30.07,SSW,197,3.7,0.0,97,0.00,,,0.01,VWS V14.01,2013-09-24 04:57:00,
2013-09-24 07:02:00,57.1,56.3,30.07,SSW,197,3.7,0.0,97,0.00,,,0.01,VWS V14.01,2013-09-24 05:02:00,
2013-09-24 07:08:00,57.2,56.4,30.07,SSW,197,3.7,0.0,97,0.00,,,0.01,VWS V14.01,2013-09-24 05:08:00,
2013-09-24 07:13:00,57.2,56.4,30.07,SSW,197,3.7,0.0,97,0.00,,,0.01,VWS V14.01,2013-09-24 05:13:00,
2013-09-24 07:18:00,57.2,56.4,30.07,SSW,197,3.7,0.0,97,0.00,,,0.01,VWS V14.01,2013-09-24 05:18:00,
2013-09-24 07:23:00,57.2,56.4,30.07,SSW,197,3.7,0.0,97,0.00,,,0.01,VWS V14.01,2013-09-24 05:23:00,
2013-09-24 07:28:00,57.2,56.4,30.07,SSW,197,3.7,0.0,97,0.00,,,0.01,VWS V14.01,2013-09-24 05:28:00,
2013-09-24 07:33:00,57.3,56.5,30.07,SSW,197,3.7,0.0,97,0.00,,,0.01,VWS V14.01,2013-09-24 05:33:00,
2013-09-24 07:38:00,57.4,56.6,30.07,SSW,197,3.7,0.0,97,0.00,,,0.01,VWS V14.01,2013-09-24 05:38:00,
2013-09-24 07:43:00,57.4,56.6,30.07,SSW,197,3.7,0.0,97,0.00,,,0.01,VWS V14.01,2013-09-24 05:43:00,
2013-09-24 07:48:00,57.4,56.6,30.07,SSW,197,3.7,0.0,97,0.00,,,0.01,VWS V14.01,2013-09-24 05:48:00,
2013-09-24 07:53:00,57.4,56.6,30.07,SSW,197,3.7,0.0,97,0.00,,,0.01,VWS V14.01,2013-09-24 05:53:00,
2013-09-24 07:58:00,57.5,56.7,30.07,SSW,197,3.7,0.0,97,0.00,,,0.01,VWS V14.01,2013-09-24 05:58:00,
2013-09-24 08:04:00,57.5,56.7,30.07,SSW,197,3.7,0.0,97,0.00,,,0.01,VWS V14.01,2013-09-24 06:04:00,
2013-09-24 08:09:00,57.5,56.7,30.07,SSW,197,3.7,0.0,97,0.00,,,0.01,VWS V14.01,2013-09-24 06:09:00,
2013-09-24 08:14:00,57.5,56.7,30.07,SSW,197,3.7,0.0,97,0.00,,,0.01,VWS V14.01,2013-09-24 06:14:00,
2013-09-24 08:19:00,57.5,56.7,30.07,SSW,197,3.7,0.0,97,0.00,,,0.01,VWS V14.01,2013-09-24 06:19:00,
2013-09-24 08:24:00,57.6,56.8,30.07,SSW,197,3.7,0.0,97,0.00,,,0.01,VWS V14.01,2013-09-24 06:24:00,
2013-09-24 08:29:00,57.6,56.8,30.07,SSW,197,3.7,0.0,97,0.00,,,0.01,VWS V14.01,2013-09-24 06:29:00,
2013-09-24 08:34:00,57.6,56.8,30.07,SSW,197,3.7,0.0,97,0.00,,,0.01,VWS V14.01,2013-09-24 06:34:00,
2013-09-24 08:39:00,57.6,56.8,30.07,SSW,197,3.7,0.0,97,0.00,,,0.01,VWS V14.01,2013-09-24 06:39:00,
2013-09-24 08:44:00,57.7,56.9,30.07,SSW,198,3.7,0.0,97,0.00,,,0.01,VWS V14.01,2013-09-24 06:44:00,
2013-09-24 08:49:00,57.7,56.9,30.07,SSW,199,3.7,0.0,97,0.00,,,0.01,VWS V14.01,2013-09-24 06:49:00,
2013-09-24 08:54:00,57.8,57.0,30.07,SSW,197,3.7,0.0,97,0.00,,,0.01,VWS V14.01,2013-09-24 06:54:00,
2013-09-24 08:59:00,57.9,57.1,30.07,SSW,199,3.7,0.0,97,0.00,,,0.01,VWS V14.01,2013-09-24 06:59:00,
2013-09-24 09:04:00,57.9,57.1,30.07,SSW,198,3.7,0.0,97,0.00,,,0.01,VWS V14.01,2013-09-24 07:04:00,
2013-09-24 09:10:00,58.0,57.2,30.07,SSW,198,3.7,0.0,97,0.00,,,0.01,VWS V14.01,2013-09-24 07:10:00,
2013-09-24 09:15:00,58.1,57.3,30.07,SSW,198,3.7,0.0,97,0.00,,,0.01,VWS V14.01,2013-09-24 07:15:00,
2013-09-24 09:20:00,58.2,57.4,30.07,SSW,198,3.7,0.0,97,0.00,,,0.01,VWS V14.01,2013-09-24 07:20:00,
2013-09-24 09:25:00,58.2,57.4,30.07,SSW,199,3.7,0.0,97,0.00,,,0.01,VWS V14.01,2013-09-24 07:25:00,
2013-09-24 09:30:00,58.3,57.5,30.07,SSW,198,3.7,0.0,97,0.00,,,0.01,VWS V14.01,2013-09-24 07:30:00,
2013-09-24 09:35:00,58.4,57.6,30.06,SSW,198,3.7,0.0,97,0.00,,,0.01,VWS V14.01,2013-09-24 07:35:00,
2013-09-24 09:40:00,58.6,57.8,30.06,SSW,199,3.7,0.0,97,0.00,,,0.01,VWS V14.01,2013-09-24 07:40:00,
2013-09-24 09:46:00,58.6,57.8,30.07,SSW,199,3.7,0.0,97,0.00,,,0.01,VWS V14.01,2013-09-24 07:46:00,
2013-09-24 09:51:00,58.6,57.8,30.07,SSW,197,3.7,0.0,97,0.00,,,0.01,VWS V14.01,2013-09-24 07:51:00,
2013-09-24 09:56:00,58.6,57.8,30.07,SSW,197,3.7,0.0,97,0.00,,,0.01,VWS V14.01,2013-09-24 07:56:00,
2013-09-24 10:01:00,58.6,57.8,30.07,SSW,203,3.7,0.0,97,0.00,,,0.01,VWS V14.01,2013-09-24 08:01:00,
2013-09-24 10:06:00,58.6,57.8,30.07,SSW,201,3.7,0.0,97,0.00,,,0.01,VWS V14.01,2013-09-24 08:06:00,
2013-09-24 10:11:00,58.7,57.8,30.07,SSW,201,3.7,0.0,97,0.00,,,0.01,VWS V14.01,2013-09-24 08:11:00,
2013-09-24 10:16:00,58.7,57.8,30.07,SSW,201,3.7,0.0,97,0.00,,,0.01,VWS V14.01,2013-09-24 08:16:00,
2013-09-24 10:21:00,58.7,57.8,30.07,SSW,201,3.7,0.0,97,0.00,,,0.01,VWS V14.01,2013-09-24 08:21:00,
2013-09-24 10:26:00,58.8,58.0,30.07,SSW,201,3.7,0.0,97,0.00,,,0.01,VWS V14.01,2013-09-24 08:26:00,
2013-09-24 10:31:00,58.9,58.0,30.06,SSW,200,3.7,0.0,97,0.00,,,0.01,VWS V14.01,2013-09-24 08:31:00,
2013-09-24 10:36:00,59.0,58.2,30.06,SSW,199,3.7,0.0,97,0.00,,,0.01,VWS V14.01,2013-09-24 08:36:00,
2013-09-24 10:41:00,59.1,58.2,30.06,SSW,210,3.7,0.0,97,0.00,,,0.01,VWS V14.01,2013-09-24 08:41:00,
2013-09-24 10:46:00,59.1,58.2,30.06,SSW,210,3.7,0.0,97,0.00,,,0.01,VWS V14.01,2013-09-24 08:46:00,
2013-09-24 10:51:00,59.2,58.3,30.06,SSW,210,3.7,0.0,97,0.00,,,0.01,VWS V14.01,2013-09-24 08:51:00,
2013-09-24 10:56:00,59.3,58.5,30.06,SSW,208,3.7,0.0,97,0.00,,,0.01,VWS V14.01,2013-09-24 08:56:00,
2013-09-24 11:01:00,59.5,58.7,30.06,SSW,210,3.7,0.0,97,0.00,,,0.01,VWS V14.01,2013-09-24 09:01:00,
2013-09-24 11:06:00,59.5,58.7,30.06,SSW,210,3.7,0.0,97,0.00,,,0.01,VWS V14.01,2013-09-24 09:06:00,
2013-09-24 11:12:00,59.7,58.8,30.06,SSW,210,3.7,0.0,97,0.00,,,0.01,VWS V14.01,2013-09-24 09:12:00,
2013-09-24 11:17:00,59.8,59.0,30.06,SSW,211,3.7,0.0,97,0.00,,,0.01,VWS V14.01,2013-09-24 09:17:00,
2013-09-24 11:22:00,60.0,59.2,30.06,SSW,211,3.7,0.0,97,0.00,,,0.01,VWS V14.01,2013-09-24 09:22:00,
2013-09-24 11:27:00,60.1,59.2,30.06,SSW,211,3.7,0.0,97,0.00,,,0.01,VWS V14.01,2013-09-24 09:27:00,
2013-09-24 11:32:00,60.5,59.7,30.05,SSW,211,3.7,0.0,97,0.00,,,0.01,VWS V14.01,2013-09-24 09:32:00,
2013-09-24 11:37:00,60.5,59.7,30.05,SSW,211,3.7,0.0,97,0.00,,,0.01,VWS V14.01,2013-09-24 09:37:00,
2013-09-24 11:42:00,60.6,59.8,30.05,SSW,211,3.7,0.0,97,0.00,,,0.01,VWS V14.01,2013-09-24 09:42:00,
2013-09-24 11:47:00,60.7,59.8,30.05,SSW,210,3.7,0.0,97,0.00,,,0.01,VWS V14.01,2013-09-24 09:47:00,
2013-09-24 11:52:00,60.7,59.8,30.05,SSW,210,3.7,0.0,97,0.00,,,0.01,VWS V14.01,2013-09-24 09:52:00,
2013-09-24 11:57:00,61.0,60.2,30.05,SSW,210,3.7,0.0,97,0.00,,,0.01,VWS V14.01,2013-09-24 09:57:00,
2013-09-24 12:02:00,61.0,60.2,30.05,SSW,210,3.7,0.0,97,0.00,,,0.01,VWS V14.01,2013-09-24 10:02:00,
2013-09-24 12:08:00,61.0,59.9,30.05,SSW,210,3.7,0.0,96,0.00,,,0.01,VWS V14.01,2013-09-24 10:08:00,
2013-09-24 12:13:00,61.0,59.9,30.05,SSW,212,3.7,0.0,96,0.00,,,0.01,VWS V14.01,2013-09-24 10:13:00,
2013-09-24 12:18:00,61.0,59.9,30.05,SW,214,3.7,0.0,96,0.00,,,0.01,VWS V14.01,2013-09-24 10:18:00,
2013-09-24 12:23:00,61.1,60.0,30.05,WSW,248,3.7,0.0,96,0.00,,,0.01,VWS V14.01,2013-09-24 10:23:00,
2013-09-24 12:28:00,61.2,60.0,30.05,WSW,246,3.7,0.0,96,0.00,,,0.01,VWS V14.01,2013-09-24 10:28:00,
2013-09-24 12:33:00,61.6,60.7,30.05,WSW,246,3.7,0.0,97,0.00,,,0.01,VWS V14.01,2013-09-24 10:33:00,
2013-09-24 12:38:00,61.6,60.5,30.05,SW,225,3.7,0.0,96,0.00,,,0.01,VWS V14.01,2013-09-24 10:38:00,
2013-09-24 12:43:00,61.8,60.7,30.05,SW,225,3.7,0.0,96,0.00,,,0.01,VWS V14.01,2013-09-24 10:43:00,
2013-09-24 12:48:00,61.9,60.5,30.05,WNW,291,5.7,5.7,95,0.00,,,0.01,VWS V14.01,2013-09-24 10:48:00,
2013-09-24 12:53:00,62.2,60.8,30.05,WNW,283,3.7,3.7,95,0.00,,,0.01,VWS V14.01,2013-09-24 10:53:00,
2013-09-24 12:58:00,62.5,60.8,30.04,West,281,3.7,0.0,94,0.00,,,0.01,VWS V14.01,2013-09-24 10:58:00,
2013-09-24 13:04:00,62.6,60.2,30.04,WNW,285,4.7,4.7,92,0.00,,,0.01,VWS V14.01,2013-09-24 11:04:00,
2013-09-24 13:09:00,62.8,60.1,30.04,WNW,287,4.7,4.7,91,0.00,,,0.01,VWS V14.01,2013-09-24 11:09:00,
2013-09-24 13:14:00,63.2,60.5,30.04,WNW,283,3.7,0.0,91,0.00,,,0.01,VWS V14.01,2013-09-24 11:14:00,
2013-09-24 13:19:00,63.2,59.6,30.04,WNW,287,4.7,4.7,88,0.00,,,0.01,VWS V14.01,2013-09-24 11:19:00,
2013-09-24 13:24:00,63.4,59.8,30.03,WNW,283,4.7,4.7,88,0.00,,,0.01,VWS V14.01,2013-09-24 11:24:00,
2013-09-24 13:29:00,63.8,59.9,30.03,West,276,3.7,0.0,87,0.00,,,0.01,VWS V14.01,2013-09-24 11:29:00,
2013-09-24 13:34:00,64.1,59.5,30.03,WNW,287,3.7,0.0,85,0.00,,,0.01,VWS V14.01,2013-09-24 11:34:00,
2013-09-24 13:39:00,64.3,59.4,30.03,West,279,4.7,4.7,84,0.00,,,0.01,VWS V14.01,2013-09-24 11:39:00,
2013-09-24 13:44:00,64.5,59.2,30.03,WNW,288,4.7,4.7,83,0.00,,,0.01,VWS V14.01,2013-09-24 11:44:00,
2013-09-24 13:49:00,64.8,59.5,30.03,West,274,3.7,0.0,83,0.00,,,0.01,VWS V14.01,2013-09-24 11:49:00,
2013-09-24 13:54:00,65.4,59.8,30.03,SSW,200,3.7,0.0,82,0.00,,,0.01,VWS V14.01,2013-09-24 11:54:00,
2013-09-24 14:00:00,66.5,60.2,30.03,NNW,328,3.7,3.7,80,0.00,,,0.01,VWS V14.01,2013-09-24 12:00:00,
2013-09-24 14:05:00,66.3,60.0,30.03,SSW,200,4.7,4.7,80,0.00,,,0.01,VWS V14.01,2013-09-24 12:05:00,
2013-09-24 14:10:00,66.0,59.3,30.03,NW,324,4.7,4.7,79,0.00,,,0.01,VWS V14.01,2013-09-24 12:10:00,
2013-09-24 14:15:00,66.0,60.0,30.03,West,259,4.7,4.7,81,0.00,,,0.01,VWS V14.01,2013-09-24 12:15:00,
2013-09-24 14:20:00,65.9,59.6,30.03,South,187,4.7,4.7,80,0.00,,,0.01,VWS V14.01,2013-09-24 12:20:00,
2013-09-24 14:25:00,65.6,59.3,30.03,WSW,241,3.7,3.7,80,0.00,,,0.01,VWS V14.01,2013-09-24 12:25:00,
2013-09-24 14:30:00,65.6,59.6,30.03,NNW,331,4.7,4.7,81,0.00,,,0.01,VWS V14.01,2013-09-24 12:30:00,
2013-09-24 14:35:00,65.2,58.9,30.02,NW,319,4.7,4.7,80,0.00,,,0.01,VWS V14.01,2013-09-24 12:35:00,
2013-09-24 14:40:00,64.9,58.9,30.02,NW,319,3.7,3.7,81,0.00,,,0.01,VWS V14.01,2013-09-24 12:40:00,
2013-09-24 14:45:00,64.6,58.7,30.02,West,272,4.7,4.7,81,0.00,,,0.01,VWS V14.01,2013-09-24 12:45:00,
2013-09-24 14:50:00,64.4,58.5,30.02,NW,315,4.7,4.7,81,0.00,,,0.01,VWS V14.01,2013-09-24 12:50:00,
2013-09-24 14:56:00,64.3,58.7,30.02,NW,317,4.7,4.7,82,0.00,,,0.01,VWS V14.01,2013-09-24 12:56:00,
2013-09-24 15:01:00,64.2,58.6,30.02,NW,314,4.7,4.7,82,0.00,,,0.01,VWS V14.01,2013-09-24 13:01:00,
2013-09-24 15:06:00,64.3,58.3,30.01,WNW,294,4.7,4.7,81,0.00,,,0.01,VWS V14.01,2013-09-24 13:06:00,
2013-09-24 15:11:00,64.4,58.8,30.01,NNE,15,3.7,0.0,82,0.00,,,0.01,VWS V14.01,2013-09-24 13:11:00,
2013-09-24 15:16:00,64.5,58.5,30.01,West,267,3.7,3.7,81,0.00,,,0.01,VWS V14.01,2013-09-24 13:16:00,
2013-09-24 15:21:00,64.7,58.4,30.01,WSW,246,3.7,3.7,80,0.00,,,0.01,VWS V14.01,2013-09-24 13:21:00,
2013-09-24 15:26:00,64.8,58.5,30.01,West,267,3.7,0.0,80,0.00,,,0.01,VWS V14.01,2013-09-24 13:26:00,
2013-09-24 15:31:00,64.9,58.2,30.01,West,281,3.7,0.0,79,0.00,,,0.01,VWS V14.01,2013-09-24 13:31:00,
2013-09-24 15:36:00,65.0,58.3,30.01,WNW,283,4.7,4.7,79,0.00,,,0.01,VWS V14.01,2013-09-24 13:36:00,
2013-09-24 15:41:00,65.0,58.0,30.00,NNW,329,5.7,5.7,78,0.00,,,0.01,VWS V14.01,2013-09-24 13:41:00,
2013-09-24 15:46:00,64.9,58.2,30.00,WNW,294,3.7,0.0,79,0.00,,,0.01,VWS V14.01,2013-09-24 13:46:00,
2013-09-24 15:51:00,64.9,58.9,30.00,South,183,4.7,4.7,81,0.00,,,0.01,VWS V14.01,2013-09-24 13:51:00,
2013-09-24 15:56:00,64.9,58.9,30.00,West,262,4.7,4.7,81,0.00,,,0.01,VWS V14.01,2013-09-24 13:56:00,
2013-09-24 16:01:00,65.0,59.4,30.00,WNW,283,3.7,3.7,82,0.00,,,0.01,VWS V14.01,2013-09-24 14:01:00,
2013-09-24 16:07:00,65.0,59.4,30.00,South,174,3.7,0.0,82,0.00,,,0.01,VWS V14.01,2013-09-24 14:07:00,
2013-09-24 16:12:00,65.0,59.4,30.00,WSW,245,3.7,0.0,82,0.00,,,0.01,VWS V14.01,2013-09-24 14:12:00,
2013-09-24 16:17:00,64.9,58.9,30.00,South,178,3.7,0.0,81,0.00,,,0.01,VWS V14.01,2013-09-24 14:17:00,
2013-09-24 16:22:00,64.9,58.9,30.00,West,262,3.7,0.0,81,0.00,,,0.01,VWS V14.01,2013-09-24 14:22:00,
2013-09-24 16:27:00,65.0,59.0,30.00,WNW,289,3.7,0.0,81,0.00,,,0.01,VWS V14.01,2013-09-24 14:27:00,
2013-09-24 16:32:00,65.2,59.2,30.00,SW,221,4.7,4.7,81,0.00,,,0.01,VWS V14.01,2013-09-24 14:32:00,
2013-09-24 16:37:00,65.6,59.3,30.00,NNW,338,3.7,3.7,80,0.00,,,0.01,VWS V14.01,2013-09-24 14:37:00,
2013-09-24 16:42:00,65.6,59.3,29.99,WNW,288,4.7,4.7,80,0.00,,,0.01,VWS V14.01,2013-09-24 14:42:00,
2013-09-24 16:47:00,65.6,58.9,29.99,West,262,3.7,0.0,79,0.00,,,0.01,VWS V14.01,2013-09-24 14:47:00,
2013-09-24 16:52:00,65.6,58.9,29.99,SW,227,3.7,0.0,79,0.00,,,0.01,VWS V14.01,2013-09-24 14:52:00,
2013-09-24 16:57:00,65.5,58.8,29.99,NW,315,3.7,3.7,79,0.00,,,0.01,VWS V14.01,2013-09-24 14:57:00,
2013-09-24 17:02:00,65.4,58.7,29.99,West,276,3.7,3.7,79,0.00,,,0.01,VWS V14.01,2013-09-24 15:02:00,
2013-09-24 17:08:00,65.2,58.2,29.99,West,281,4.7,4.7,78,0.00,,,0.01,VWS V14.01,2013-09-24 15:08:00,
2013-09-24 17:13:00,65.2,58.5,29.99,West,262,4.7,4.7,79,0.00,,,0.01,VWS V14.01,2013-09-24 15:13:00,
2013-09-24 17:18:00,65.0,58.0,29.99,West,277,3.7,3.7,78,0.00,,,0.01,VWS V14.01,2013-09-24 15:18:00,
2013-09-24 17:23:00,65.1,58.4,29.98,WSW,255,3.7,0.0,79,0.00,,,0.01,VWS V14.01,2013-09-24 15:23:00,
2013-09-24 17:28:00,65.3,58.6,29.98,WSW,245,3.7,0.0,79,0.00,,,0.01,VWS V14.01,2013-09-24 15:28:00,
2013-09-24 17:33:00,65.4,58.4,29.98,NNW,330,3.7,0.0,78,0.00,,,0.01,VWS V14.01,2013-09-24 15:33:00,
2013-09-24 17:38:00,65.5,58.5,29.98,SSE,159,3.7,0.0,78,0.00,,,0.01,VWS V14.01,2013-09-24 15:38:00,
2013-09-24 17:43:00,65.5,58.5,29.98,SSW,193,3.7,0.0,78,0.00,,,0.01,VWS V14.01,2013-09-24 15:43:00,
2013-09-24 17:48:00,65.3,58.3,29.98,SSE,151,4.7,4.7,78,0.00,,,0.01,VWS V14.01,2013-09-24 15:48:00,
2013-09-24 17:53:00,65.1,58.1,29.98,South,173,3.7,0.0,78,0.00,,,0.01,VWS V14.01,2013-09-24 15:53:00,
2013-09-24 17:59:00,64.9,57.9,29.98,South,183,4.7,4.7,78,0.00,,,0.01,VWS V14.01,2013-09-24 15:59:00,
2013-09-24 18:04:00,64.8,57.8,29.98,WSW,248,3.7,3.7,78,0.00,,,0.01,VWS V14.01,2013-09-24 16:04:00,
2013-09-24 18:09:00,64.6,58.0,29.98,WSW,246,3.7,0.0,79,0.00,,,0.01,VWS V14.01,2013-09-24 16:09:00,
2013-09-24 18:14:00,64.4,57.8,29.97,WSW,243,3.7,0.0,79,0.00,,,0.01,VWS V14.01,2013-09-24 16:14:00,
2013-09-24 18:19:00,64.3,58.0,29.97,WSW,241,3.7,0.0,80,0.00,,,0.01,VWS V14.01,2013-09-24 16:19:00,
2013-09-24 18:24:00,64.1,57.8,29.97,SSW,211,3.7,0.0,80,0.00,,,0.01,VWS V14.01,2013-09-24 16:24:00,
2013-09-24 18:29:00,63.9,57.6,29.97,SW,222,3.7,0.0,80,0.00,,,0.01,VWS V14.01,2013-09-24 16:29:00,
2013-09-24 18:34:00,63.8,57.5,29.97,SW,218,3.7,0.0,80,0.00,,,0.01,VWS V14.01,2013-09-24 16:34:00,
2013-09-24 18:39:00,63.7,57.8,29.97,SW,218,3.7,0.0,81,0.00,,,0.01,VWS V14.01,2013-09-24 16:39:00,
2013-09-24 18:44:00,63.6,57.7,29.98,SW,218,3.7,0.0,81,0.00,,,0.01,VWS V14.01,2013-09-24 16:44:00,
2013-09-24 18:49:00,63.4,57.5,29.98,SW,218,3.7,0.0,81,0.00,,,0.01,VWS V14.01,2013-09-24 16:49:00,
2013-09-24 18:54:00,63.3,57.7,29.97,SW,231,3.7,0.0,82,0.00,,,0.01,VWS V14.01,2013-09-24 16:54:00,
2013-09-24 18:59:00,63.1,57.9,29.98,SW,231,3.7,0.0,83,0.00,,,0.01,VWS V14.01,2013-09-24 16:59:00,
2013-09-24 19:04:00,63.0,57.8,29.98,West,262,3.7,0.0,83,0.00,,,0.01,VWS V14.01,2013-09-24 17:04:00,
2013-09-24 19:09:00,62.8,57.6,29.98,West,262,3.7,0.0,83,0.00,,,0.01,VWS V14.01,2013-09-24 17:09:00,
2013-09-24 19:15:00,62.6,57.7,29.98,West,261,3.7,0.0,84,0.00,,,0.01,VWS V14.01,2013-09-24 17:15:00,
2013-09-24 19:20:00,62.4,57.5,29.98,NW,307,3.7,0.0,84,0.00,,,0.01,VWS V14.01,2013-09-24 17:20:00,
2013-09-24 19:25:00,62.2,57.6,29.98,NW,307,3.7,0.0,85,0.00,,,0.01,VWS V14.01,2013-09-24 17:25:00,
2013-09-24 19:30:00,61.9,57.3,29.98,North,355,3.7,0.0,85,0.00,,,0.01,VWS V14.01,2013-09-24 17:30:00,
2013-09-24 19:35:00,61.6,57.4,29.98,NNW,341,3.7,0.0,86,0.00,,,0.01,VWS V14.01,2013-09-24 17:35:00,
2013-09-24 19:40:00,61.3,57.1,29.98,NNW,341,3.7,0.0,86,0.00,,,0.01,VWS V14.01,2013-09-24 17:40:00,
2013-09-24 19:45:00,60.9,57.0,29.98,NNW,340,3.7,0.0,87,0.00,,,0.01,VWS V14.01,2013-09-24 17:45:00,
2013-09-24 19:50:00,60.6,56.7,29.98,NNW,340,3.7,0.0,87,0.00,,,0.01,VWS V14.01,2013-09-24 17:50:00,
2013-09-24 19:55:00,60.3,56.7,29.98,NNW,341,3.7,3.7,88,0.00,,,0.01,VWS V14.01,2013-09-24 17:55:00,
2013-09-24 20:00:00,60.0,56.4,29.98,NNW,341,3.7,0.0,88,0.00,,,0.01,VWS V14.01,2013-09-24 18:00:00,
2013-09-24 20:05:00,59.7,56.5,29.98,NNW,341,3.7,0.0,89,0.00,,,0.01,VWS V14.01,2013-09-24 18:05:00,
2013-09-24 20:10:00,59.4,56.2,29.98,NNW,341,3.7,0.0,89,0.00,,,0.01,VWS V14.01,2013-09-24 18:10:00,
2013-09-24 20:15:00,59.1,55.9,29.98,NNW,340,3.7,0.0,89,0.00,,,0.01,VWS V14.01,2013-09-24 18:15:00,
2013-09-24 20:21:00,59.0,56.1,29.98,NNW,340,3.7,0.0,90,0.00,,,0.01,VWS V14.01,2013-09-24 18:21:00,
2013-09-24 20:26:00,58.7,55.8,29.98,NNW,340,3.7,0.0,90,0.00,,,0.01,VWS V14.01,2013-09-24 18:26:00,
2013-09-24 20:31:00,58.5,55.9,29.98,NNW,340,3.7,0.0,91,0.00,,,0.01,VWS V14.01,2013-09-24 18:31:00,
2013-09-24 20:36:00,58.2,55.6,29.98,NNW,340,3.7,0.0,91,0.00,,,0.01,VWS V14.01,2013-09-24 18:36:00,
2013-09-24 20:41:00,58.1,55.5,29.98,NNW,340,3.7,0.0,91,0.00,,,0.01,VWS V14.01,2013-09-24 18:41:00,
2013-09-24 20:46:00,57.9,55.3,29.98,NNW,340,3.7,0.0,91,0.00,,,0.01,VWS V14.01,2013-09-24 18:46:00,
2013-09-24 20:51:00,57.6,55.0,29.98,NNW,340,3.7,0.0,91,0.00,,,0.01,VWS V14.01,2013-09-24 18:51:00,
2013-09-24 20:56:00,57.4,55.1,29.98,NNW,340,3.7,0.0,92,0.00,,,0.01,VWS V14.01,2013-09-24 18:56:00,
2013-09-24 21:01:00,57.4,55.1,29.98,NNW,340,3.7,0.0,92,0.00,,,0.01,VWS V14.01,2013-09-24 19:01:00,
2013-09-24 21:06:00,57.3,55.0,29.98,NNW,340,3.7,0.0,92,0.00,,,0.01,VWS V14.01,2013-09-24 19:06:00,
2013-09-24 21:12:00,57.2,55.2,29.98,NNW,340,3.7,0.0,93,0.00,,,0.01,VWS V14.01,2013-09-24 19:12:00,
2013-09-24 21:17:00,56.9,54.9,29.98,NNW,340,3.7,0.0,93,0.00,,,0.01,VWS V14.01,2013-09-24 19:17:00,
2013-09-24 21:22:00,56.7,54.7,29.98,NNW,340,3.7,0.0,93,0.00,,,0.01,VWS V14.01,2013-09-24 19:22:00,
2013-09-24 21:27:00,56.6,54.6,29.98,NNW,340,3.7,0.0,93,0.00,,,0.01,VWS V14.01,2013-09-24 19:27:00,
2013-09-24 21:32:00,56.4,54.4,29.98,NNW,340,3.7,0.0,93,0.00,,,0.01,VWS V14.01,2013-09-24 19:32:00,
2013-09-24 21:37:00,56.3,54.3,29.98,NNW,340,3.7,0.0,93,0.00,,,0.01,VWS V14.01,2013-09-24 19:37:00,
2013-09-24 21:42:00,56.5,54.8,29.98,NNW,340,3.7,0.0,94,0.00,,,0.01,VWS V14.01,2013-09-24 19:42:00,
2013-09-24 21:47:00,56.5,54.8,29.98,NNW,340,3.7,0.0,94,0.00,,,0.01,VWS V14.01,2013-09-24 19:47:00,
2013-09-24 21:52:00,56.6,54.9,29.98,NNW,340,3.7,0.0,94,0.00,,,0.01,VWS V14.01,2013-09-24 19:52:00,
2013-09-24 21:57:00,56.8,55.1,29.98,NNW,340,3.7,0.0,94,0.00,,,0.01,VWS V14.01,2013-09-24 19:57:00,
2013-09-24 22:03:00,57.0,55.3,29.98,NNW,340,3.7,0.0,94,0.00,,,0.01,VWS V14.01,2013-09-24 20:03:00,
2013-09-24 22:08:00,57.2,55.5,29.98,NNW,340,3.7,0.0,94,0.00,,,0.01,VWS V14.01,2013-09-24 20:08:00,
2013-09-24 22:13:00,57.2,55.5,29.98,NNW,340,3.7,0.0,94,0.00,,,0.01,VWS V14.01,2013-09-24 20:13:00,
2013-09-24 22:18:00,57.3,55.6,29.98,NNW,340,3.7,0.0,94,0.00,,,0.01,VWS V14.01,2013-09-24 20:18:00,
2013-09-24 22:23:00,57.2,55.5,29.98,NNW,340,3.7,0.0,94,0.00,,,0.01,VWS V14.01,2013-09-24 20:23:00,
2013-09-24 22:28:00,57.2,55.5,29.98,NNW,340,3.7,0.0,94,0.00,,,0.01,VWS V14.01,2013-09-24 20:28:00,
2013-09-24 22:33:00,57.2,55.5,29.98,NNW,340,3.7,0.0,94,0.00,,,0.01,VWS V14.01,2013-09-24 20:33:00,
2013-09-24 22:38:00,57.2,55.5,29.98,NNW,340,3.7,0.0,94,0.00,,,0.01,VWS V14.01,2013-09-24 20:38:00,
2013-09-24 22:43:00,57.2,55.5,29.98,NNW,340,3.7,0.0,94,0.00,,,0.01,VWS V14.01,2013-09-24 20:43:00,
2013-09-24 22:48:00,57.2,55.5,29.98,NNW,340,3.7,0.0,94,0.00,,,0.01,VWS V14.01,2013-09-24 20:48:00,
2013-09-24 22:53:00,57.2,55.5,29.98,NNW,340,3.7,0.0,94,0.00,,,0.01,VWS V14.01,2013-09-24 20:53:00,
2013-09-24 22:58:00,57.1,55.4,29.98,NNW,340,3.7,0.0,94,0.00,,,0.01,VWS V14.01,2013-09-24 20:58:00,
2013-09-24 23:04:00,57.2,55.5,29.97,NNW,340,3.7,0.0,94,0.00,,,0.01,VWS V14.01,2013-09-24 21:04:00,
2013-09-24 23:09:00,57.2,55.5,29.98,NNW,340,3.7,0.0,94,0.00,,,0.01,VWS V14.01,2013-09-24 21:09:00,
2013-09-24 23:14:00,57.2,55.5,29.97,NNW,340,3.7,0.0,94,0.00,,,0.01,VWS V14.01,2013-09-24 21:14:00,
2013-09-24 23:19:00,57.2,55.5,29.98,NNW,340,3.7,0.0,94,0.00,,,0.01,VWS V14.01,2013-09-24 21:19:00,
2013-09-24 23:24:00,57.2,55.5,29.98,NNW,340,3.7,0.0,94,0.00,,,0.01,VWS V14.01,2013-09-24 21:24:00,
2013-09-24 23:29:00,57.2,55.5,29.98,NNW,340,3.7,0.0,94,0.00,,,0.01,VWS V14.01,2013-09-24 21:29:00,
2013-09-24 23:34:00,57.3,55.6,29.98,NNW,340,3.7,0.0,94,0.00,,,0.01,VWS V14.01,2013-09-24 21:34:00,
2013-09-24 23:39:00,57.4,55.7,29.98,NNW,340,3.7,0.0,94,0.00,,,0.01,VWS V14.01,2013-09-24 21:39:00,
2013-09-24 23:44:00,57.4,55.7,29.98,NNW,340,3.7,0.0,94,0.00,,,0.01,VWS V14.01,2013-09-24 21:44:00,
2013-09-24 23:49:00,57.4,55.4,29.97,NNW,340,3.7,0.0,93,0.00,,,0.01,VWS V14.01,2013-09-24 21:49:00,
2013-09-24 23:54:00,57.4,55.4,29.97,NNW,340,3.7,0.0,93,0.00,,,0.01,VWS V14.01,2013-09-24 21:54:00,
2013-09-24 23:59:00,57.5,55.5,29.98,NNW,340,3.7,0.0,93,0.00,,,0.00,VWS V14.01,2013-09-24 21:59:00,